sensor_id;sensor_type;location;lat;lon;timestamp;P1;durP1;ratioP1;P2;durP2;ratioP2
42192;SDS011;52467;40.114;18.306;2023-07-31T00:00:47;0.10;;;0.10;;
42192;SDS011;52467;40.114;18.306;2023-07-31T00:03:15;0.10;;;0.10;;
42192;SDS011;52467;40.114;18.306;2023-07-31T00:05:42;0.10;;;0.10;;
42192;SDS011;52467;40.114;18.306;2023-07-31T00:08:09;0.10;;;0.10;;
42192;SDS011;52467;40.114;18.306;2023-07-31T00:10:37;0.10;;;0.10;;
42192;SDS011;52467;40.114;18.306;2023-07-31T00:13:04;0.10;;;0.10;;
42192;SDS011;52467;40.114;18.306;2023-07-31T00:15:31;0.10;;;0.10;;
42192;SDS011;52467;40.114;18.306;2023-07-31T00:17:58;0.10;;;0.10;;
42192;SDS011;52467;40.114;18.306;2023-07-31T00:20:27;0.10;;;0.10;;
42192;SDS011;52467;40.114;18.306;2023-07-31T00:22:54;0.10;;;0.10;;
42192;SDS011;52467;40.114;18.306;2023-07-31T00:25:22;0.10;;;0.10;;
42192;SDS011;52467;40.114;18.306;2023-07-31T00:27:50;0.10;;;0.10;;
42192;SDS011;52467;40.114;18.306;2023-07-31T00:30:17;0.10;;;0.10;;
42192;SDS011;52467;40.114;18.306;2023-07-31T00:32:44;0.10;;;0.10;;
42192;SDS011;52467;40.114;18.306;2023-07-31T00:35:11;0.10;;;0.10;;
42192;SDS011;52467;40.114;18.306;2023-07-31T00:37:39;0.10;;;0.10;;
42192;SDS011;52467;40.114;18.306;2023-07-31T00:40:06;0.10;;;0.10;;
42192;SDS011;52467;40.114;18.306;2023-07-31T00:42:34;0.10;;;0.10;;
42192;SDS011;52467;40.114;18.306;2023-07-31T00:45:01;0.10;;;0.10;;
42192;SDS011;52467;40.114;18.306;2023-07-31T00:47:30;0.10;;;0.10;;
42192;SDS011;52467;40.114;18.306;2023-07-31T00:49:57;0.10;;;0.10;;
42192;SDS011;52467;40.114;18.306;2023-07-31T00:52:24;0.10;;;0.10;;
42192;SDS011;52467;40.114;18.306;2023-07-31T00:54:52;0.10;;;0.10;;
42192;SDS011;52467;40.114;18.306;2023-07-31T00:57:19;0.10;;;0.10;;
42192;SDS011;52467;40.114;18.306;2023-07-31T00:59:46;0.10;;;0.10;;
42192;SDS011;52467;40.114;18.306;2023-07-31T01:02:14;0.10;;;0.10;;
42192;SDS011;52467;40.114;18.306;2023-07-31T01:04:42;0.10;;;0.10;;
42192;SDS011;52467;40.114;18.306;2023-07-31T01:09:47;0.10;;;0.10;;
42192;SDS011;52467;40.114;18.306;2023-07-31T01:12:18;0.10;;;0.10;;
42192;SDS011;52467;40.114;18.306;2023-07-31T01:15:03;0.10;;;0.10;;
42192;SDS011;52467;40.114;18.306;2023-07-31T01:17:33;0.10;;;0.10;;
42192;SDS011;52467;40.114;18.306;2023-07-31T01:20:02;0.10;;;0.10;;
42192;SDS011;52467;40.114;18.306;2023-07-31T01:22:39;0.10;;;0.10;;
42192;SDS011;52467;40.114;18.306;2023-07-31T01:28:40;0.10;;;0.10;;
42192;SDS011;52467;40.114;18.306;2023-07-31T01:31:18;0.10;;;0.10;;
42192;SDS011;52467;40.114;18.306;2023-07-31T01:33:48;0.10;;;0.10;;
42192;SDS011;52467;40.114;18.306;2023-07-31T01:36:16;0.10;;;0.10;;
42192;SDS011;52467;40.114;18.306;2023-07-31T01:38:43;0.10;;;0.10;;
42192;SDS011;52467;40.114;18.306;2023-07-31T01:41:11;0.10;;;0.10;;
42192;SDS011;52467;40.114;18.306;2023-07-31T01:43:38;0.10;;;0.10;;
42192;SDS011;52467;40.114;18.306;2023-07-31T01:46:06;0.10;;;0.10;;
42192;SDS011;52467;40.114;18.306;2023-07-31T01:48:33;0.10;;;0.10;;
42192;SDS011;52467;40.114;18.306;2023-07-31T01:51:02;0.10;;;0.10;;
42192;SDS011;52467;40.114;18.306;2023-07-31T01:53:31;0.10;;;0.10;;
42192;SDS011;52467;40.114;18.306;2023-07-31T01:55:58;0.10;;;0.10;;
42192;SDS011;52467;40.114;18.306;2023-07-31T01:58:26;0.10;;;0.10;;
42192;SDS011;52467;40.114;18.306;2023-07-31T02:00:53;0.10;;;0.10;;
42192;SDS011;52467;40.114;18.306;2023-07-31T02:03:21;0.10;;;0.10;;
42192;SDS011;52467;40.114;18.306;2023-07-31T02:05:50;0.10;;;0.10;;
42192;SDS011;52467;40.114;18.306;2023-07-31T02:08:18;0.10;;;0.10;;
42192;SDS011;52467;40.114;18.306;2023-07-31T02:10:45;0.10;;;0.10;;
42192;SDS011;52467;40.114;18.306;2023-07-31T02:13:12;0.10;;;0.10;;
42192;SDS011;52467;40.114;18.306;2023-07-31T02:15:40;0.10;;;0.10;;
42192;SDS011;52467;40.114;18.306;2023-07-31T02:18:08;0.10;;;0.10;;
42192;SDS011;52467;40.114;18.306;2023-07-31T02:20:35;0.10;;;0.10;;
42192;SDS011;52467;40.114;18.306;2023-07-31T02:23:03;0.10;;;0.10;;
42192;SDS011;52467;40.114;18.306;2023-07-31T02:25:30;0.10;;;0.10;;
42192;SDS011;52467;40.114;18.306;2023-07-31T02:27:58;0.10;;;0.10;;
42192;SDS011;52467;40.114;18.306;2023-07-31T02:30:25;0.10;;;0.10;;
42192;SDS011;52467;40.114;18.306;2023-07-31T02:32:52;0.10;;;0.10;;
42192;SDS011;52467;40.114;18.306;2023-07-31T02:35:20;0.10;;;0.10;;
42192;SDS011;52467;40.114;18.306;2023-07-31T02:37:47;0.10;;;0.10;;
42192;SDS011;52467;40.114;18.306;2023-07-31T02:40:15;0.10;;;0.10;;
42192;SDS011;52467;40.114;18.306;2023-07-31T02:42:42;0.10;;;0.10;;
42192;SDS011;52467;40.114;18.306;2023-07-31T02:45:11;0.10;;;0.10;;
42192;SDS011;52467;40.114;18.306;2023-07-31T02:47:38;0.10;;;0.10;;
42192;SDS011;52467;40.114;18.306;2023-07-31T02:50:06;0.10;;;0.10;;
42192;SDS011;52467;40.114;18.306;2023-07-31T02:52:34;0.10;;;0.10;;
42192;SDS011;52467;40.114;18.306;2023-07-31T02:55:01;0.10;;;0.10;;
42192;SDS011;52467;40.114;18.306;2023-07-31T02:57:29;0.10;;;0.10;;
42192;SDS011;52467;40.114;18.306;2023-07-31T02:59:56;0.10;;;0.10;;
42192;SDS011;52467;40.114;18.306;2023-07-31T03:02:23;0.10;;;0.10;;
42192;SDS011;52467;40.114;18.306;2023-07-31T03:04:51;0.10;;;0.10;;
42192;SDS011;52467;40.114;18.306;2023-07-31T03:07:18;0.10;;;0.10;;
42192;SDS011;52467;40.114;18.306;2023-07-31T03:09:46;0.10;;;0.10;;
42192;SDS011;52467;40.114;18.306;2023-07-31T03:12:14;0.10;;;0.10;;
42192;SDS011;52467;40.114;18.306;2023-07-31T03:14:41;0.10;;;0.10;;
42192;SDS011;52467;40.114;18.306;2023-07-31T03:17:09;0.10;;;0.10;;
42192;SDS011;52467;40.114;18.306;2023-07-31T03:19:36;0.10;;;0.10;;
42192;SDS011;52467;40.114;18.306;2023-07-31T03:22:04;0.10;;;0.10;;
42192;SDS011;52467;40.114;18.306;2023-07-31T03:24:32;0.10;;;0.10;;
42192;SDS011;52467;40.114;18.306;2023-07-31T03:26:59;0.10;;;0.10;;
42192;SDS011;52467;40.114;18.306;2023-07-31T03:29:26;0.10;;;0.10;;
42192;SDS011;52467;40.114;18.306;2023-07-31T03:31:54;0.10;;;0.10;;
42192;SDS011;52467;40.114;18.306;2023-07-31T03:34:22;0.10;;;0.10;;
42192;SDS011;52467;40.114;18.306;2023-07-31T03:36:49;0.10;;;0.10;;
42192;SDS011;52467;40.114;18.306;2023-07-31T03:39:17;0.10;;;0.10;;
42192;SDS011;52467;40.114;18.306;2023-07-31T03:41:45;0.10;;;0.10;;
42192;SDS011;52467;40.114;18.306;2023-07-31T03:44:12;0.10;;;0.10;;
42192;SDS011;52467;40.114;18.306;2023-07-31T03:46:39;0.10;;;0.10;;
42192;SDS011;52467;40.114;18.306;2023-07-31T03:49:07;0.10;;;0.10;;
42192;SDS011;52467;40.114;18.306;2023-07-31T03:51:34;0.10;;;0.10;;
42192;SDS011;52467;40.114;18.306;2023-07-31T03:54:01;0.10;;;0.10;;
42192;SDS011;52467;40.114;18.306;2023-07-31T03:56:29;0.10;;;0.10;;
42192;SDS011;52467;40.114;18.306;2023-07-31T03:58:57;0.10;;;0.10;;
42192;SDS011;52467;40.114;18.306;2023-07-31T04:01:26;0.10;;;0.10;;
42192;SDS011;52467;40.114;18.306;2023-07-31T04:03:53;0.10;;;0.10;;
42192;SDS011;52467;40.114;18.306;2023-07-31T04:06:21;0.10;;;0.10;;
42192;SDS011;52467;40.114;18.306;2023-07-31T04:08:48;0.10;;;0.10;;
42192;SDS011;52467;40.114;18.306;2023-07-31T04:11:16;0.10;;;0.10;;
42192;SDS011;52467;40.114;18.306;2023-07-31T04:13:43;0.10;;;0.10;;
42192;SDS011;52467;40.114;18.306;2023-07-31T04:16:10;0.10;;;0.10;;
42192;SDS011;52467;40.114;18.306;2023-07-31T04:18:38;0.10;;;0.10;;
42192;SDS011;52467;40.114;18.306;2023-07-31T04:21:05;0.10;;;0.10;;
42192;SDS011;52467;40.114;18.306;2023-07-31T04:23:32;0.10;;;0.10;;
42192;SDS011;52467;40.114;18.306;2023-07-31T04:25:59;0.10;;;0.10;;
42192;SDS011;52467;40.114;18.306;2023-07-31T04:28:27;0.10;;;0.10;;
42192;SDS011;52467;40.114;18.306;2023-07-31T04:30:54;0.10;;;0.10;;
42192;SDS011;52467;40.114;18.306;2023-07-31T04:33:22;0.10;;;0.10;;
42192;SDS011;52467;40.114;18.306;2023-07-31T04:35:52;0.10;;;0.10;;
42192;SDS011;52467;40.114;18.306;2023-07-31T04:38:20;0.10;;;0.10;;
42192;SDS011;52467;40.114;18.306;2023-07-31T04:40:48;0.10;;;0.10;;
42192;SDS011;52467;40.114;18.306;2023-07-31T04:43:16;0.10;;;0.10;;
42192;SDS011;52467;40.114;18.306;2023-07-31T04:45:46;0.10;;;0.10;;
42192;SDS011;52467;40.114;18.306;2023-07-31T04:48:14;0.10;;;0.10;;
42192;SDS011;52467;40.114;18.306;2023-07-31T04:50:42;0.10;;;0.10;;
42192;SDS011;52467;40.114;18.306;2023-07-31T04:53:09;0.10;;;0.10;;
42192;SDS011;52467;40.114;18.306;2023-07-31T04:55:36;0.10;;;0.10;;
42192;SDS011;52467;40.114;18.306;2023-07-31T04:58:05;0.10;;;0.10;;
42192;SDS011;52467;40.114;18.306;2023-07-31T05:00:32;0.10;;;0.10;;
42192;SDS011;52467;40.114;18.306;2023-07-31T05:03:00;0.10;;;0.10;;
42192;SDS011;52467;40.114;18.306;2023-07-31T05:05:27;0.10;;;0.10;;
42192;SDS011;52467;40.114;18.306;2023-07-31T05:07:54;0.10;;;0.10;;
42192;SDS011;52467;40.114;18.306;2023-07-31T05:10:22;0.10;;;0.10;;
42192;SDS011;52467;40.114;18.306;2023-07-31T05:12:49;0.10;;;0.10;;
42192;SDS011;52467;40.114;18.306;2023-07-31T05:15:16;0.10;;;0.10;;
42192;SDS011;52467;40.114;18.306;2023-07-31T05:17:44;0.10;;;0.10;;
42192;SDS011;52467;40.114;18.306;2023-07-31T05:20:11;0.10;;;0.10;;
42192;SDS011;52467;40.114;18.306;2023-07-31T05:22:39;0.10;;;0.10;;
42192;SDS011;52467;40.114;18.306;2023-07-31T05:25:07;0.10;;;0.10;;
42192;SDS011;52467;40.114;18.306;2023-07-31T05:27:34;0.10;;;0.10;;
42192;SDS011;52467;40.114;18.306;2023-07-31T05:30:02;0.10;;;0.10;;
42192;SDS011;52467;40.114;18.306;2023-07-31T05:32:30;0.10;;;0.10;;
42192;SDS011;52467;40.114;18.306;2023-07-31T05:34:57;0.10;;;0.10;;
42192;SDS011;52467;40.114;18.306;2023-07-31T05:37:24;0.10;;;0.10;;
42192;SDS011;52467;40.114;18.306;2023-07-31T05:39:52;0.10;;;0.10;;
42192;SDS011;52467;40.114;18.306;2023-07-31T05:42:19;0.10;;;0.10;;
42192;SDS011;52467;40.114;18.306;2023-07-31T05:44:46;0.10;;;0.10;;
42192;SDS011;52467;40.114;18.306;2023-07-31T05:47:13;0.10;;;0.10;;
42192;SDS011;52467;40.114;18.306;2023-07-31T05:49:41;0.10;;;0.10;;
42192;SDS011;52467;40.114;18.306;2023-07-31T05:52:08;0.10;;;0.10;;
42192;SDS011;52467;40.114;18.306;2023-07-31T05:54:35;0.10;;;0.10;;
42192;SDS011;52467;40.114;18.306;2023-07-31T05:57:03;0.10;;;0.10;;
42192;SDS011;52467;40.114;18.306;2023-07-31T05:59:30;0.10;;;0.10;;
42192;SDS011;52467;40.114;18.306;2023-07-31T06:01:59;0.10;;;0.10;;
42192;SDS011;52467;40.114;18.306;2023-07-31T06:04:27;0.10;;;0.10;;
42192;SDS011;52467;40.114;18.306;2023-07-31T06:06:55;0.10;;;0.10;;
42192;SDS011;52467;40.114;18.306;2023-07-31T06:09:22;0.10;;;0.10;;
42192;SDS011;52467;40.114;18.306;2023-07-31T06:11:50;0.10;;;0.10;;
42192;SDS011;52467;40.114;18.306;2023-07-31T06:14:17;0.10;;;0.10;;
42192;SDS011;52467;40.114;18.306;2023-07-31T06:16:44;0.10;;;0.10;;
42192;SDS011;52467;40.114;18.306;2023-07-31T06:19:11;0.10;;;0.10;;
42192;SDS011;52467;40.114;18.306;2023-07-31T06:21:39;0.10;;;0.10;;
42192;SDS011;52467;40.114;18.306;2023-07-31T06:24:08;0.10;;;0.10;;
42192;SDS011;52467;40.114;18.306;2023-07-31T06:26:36;0.10;;;0.10;;
42192;SDS011;52467;40.114;18.306;2023-07-31T06:29:03;0.10;;;0.10;;
42192;SDS011;52467;40.114;18.306;2023-07-31T06:31:30;0.10;;;0.10;;
42192;SDS011;52467;40.114;18.306;2023-07-31T06:33:57;0.10;;;0.10;;
42192;SDS011;52467;40.114;18.306;2023-07-31T06:36:25;0.10;;;0.10;;
42192;SDS011;52467;40.114;18.306;2023-07-31T06:38:52;0.10;;;0.10;;
42192;SDS011;52467;40.114;18.306;2023-07-31T06:41:19;0.10;;;0.10;;
42192;SDS011;52467;40.114;18.306;2023-07-31T06:43:46;0.10;;;0.10;;
42192;SDS011;52467;40.114;18.306;2023-07-31T06:46:14;0.10;;;0.10;;
42192;SDS011;52467;40.114;18.306;2023-07-31T06:48:41;0.10;;;0.10;;
42192;SDS011;52467;40.114;18.306;2023-07-31T06:51:08;0.10;;;0.10;;
42192;SDS011;52467;40.114;18.306;2023-07-31T06:53:36;0.10;;;0.10;;
42192;SDS011;52467;40.114;18.306;2023-07-31T06:56:03;0.10;;;0.10;;
42192;SDS011;52467;40.114;18.306;2023-07-31T06:58:31;0.10;;;0.10;;
42192;SDS011;52467;40.114;18.306;2023-07-31T07:00:58;0.10;;;0.10;;
42192;SDS011;52467;40.114;18.306;2023-07-31T07:03:25;0.10;;;0.10;;
42192;SDS011;52467;40.114;18.306;2023-07-31T07:05:52;0.10;;;0.10;;
42192;SDS011;52467;40.114;18.306;2023-07-31T07:08:20;0.10;;;0.10;;
42192;SDS011;52467;40.114;18.306;2023-07-31T07:10:47;0.10;;;0.10;;
42192;SDS011;52467;40.114;18.306;2023-07-31T07:13:14;0.10;;;0.10;;
42192;SDS011;52467;40.114;18.306;2023-07-31T07:15:42;0.10;;;0.10;;
42192;SDS011;52467;40.114;18.306;2023-07-31T07:18:09;0.10;;;0.10;;
42192;SDS011;52467;40.114;18.306;2023-07-31T07:20:37;0.10;;;0.10;;
42192;SDS011;52467;40.114;18.306;2023-07-31T07:23:04;0.10;;;0.10;;
42192;SDS011;52467;40.114;18.306;2023-07-31T07:25:32;0.10;;;0.10;;
42192;SDS011;52467;40.114;18.306;2023-07-31T07:27:59;0.10;;;0.10;;
42192;SDS011;52467;40.114;18.306;2023-07-31T07:30:27;0.10;;;0.10;;
42192;SDS011;52467;40.114;18.306;2023-07-31T07:32:54;0.10;;;0.10;;
42192;SDS011;52467;40.114;18.306;2023-07-31T07:35:21;0.10;;;0.10;;
42192;SDS011;52467;40.114;18.306;2023-07-31T07:37:49;0.10;;;0.10;;
42192;SDS011;52467;40.114;18.306;2023-07-31T07:40:20;0.10;;;0.10;;
42192;SDS011;52467;40.114;18.306;2023-07-31T07:42:47;0.10;;;0.10;;
42192;SDS011;52467;40.114;18.306;2023-07-31T07:45:17;0.10;;;0.10;;
42192;SDS011;52467;40.114;18.306;2023-07-31T07:47:44;0.10;;;0.10;;
42192;SDS011;52467;40.114;18.306;2023-07-31T07:50:11;0.10;;;0.10;;
42192;SDS011;52467;40.114;18.306;2023-07-31T07:52:38;0.10;;;0.10;;
42192;SDS011;52467;40.114;18.306;2023-07-31T07:55:06;0.10;;;0.10;;
42192;SDS011;52467;40.114;18.306;2023-07-31T07:57:33;0.00;;;0.00;;
42192;SDS011;52467;40.114;18.306;2023-07-31T08:00:01;0.10;;;0.10;;
42192;SDS011;52467;40.114;18.306;2023-07-31T08:02:39;0.10;;;0.10;;
42192;SDS011;52467;40.114;18.306;2023-07-31T08:05:07;0.10;;;0.10;;
42192;SDS011;52467;40.114;18.306;2023-07-31T08:07:34;0.10;;;0.10;;
42192;SDS011;52467;40.114;18.306;2023-07-31T08:10:02;0.10;;;0.10;;
42192;SDS011;52467;40.114;18.306;2023-07-31T08:12:29;0.10;;;0.10;;
42192;SDS011;52467;40.114;18.306;2023-07-31T08:14:57;0.10;;;0.10;;
42192;SDS011;52467;40.114;18.306;2023-07-31T08:17:24;0.10;;;0.10;;
42192;SDS011;52467;40.114;18.306;2023-07-31T08:19:51;0.10;;;0.10;;
42192;SDS011;52467;40.114;18.306;2023-07-31T08:22:18;0.10;;;0.10;;
42192;SDS011;52467;40.114;18.306;2023-07-31T08:24:46;0.10;;;0.10;;
42192;SDS011;52467;40.114;18.306;2023-07-31T08:27:13;0.10;;;0.10;;
42192;SDS011;52467;40.114;18.306;2023-07-31T08:29:40;0.10;;;0.10;;
42192;SDS011;52467;40.114;18.306;2023-07-31T08:32:07;0.10;;;0.10;;
42192;SDS011;52467;40.114;18.306;2023-07-31T08:34:35;0.10;;;0.10;;
42192;SDS011;52467;40.114;18.306;2023-07-31T08:37:02;0.10;;;0.10;;
42192;SDS011;52467;40.114;18.306;2023-07-31T08:39:30;0.10;;;0.10;;
42192;SDS011;52467;40.114;18.306;2023-07-31T08:41:58;0.10;;;0.10;;
42192;SDS011;52467;40.114;18.306;2023-07-31T08:44:26;0.10;;;0.10;;
42192;SDS011;52467;40.114;18.306;2023-07-31T08:46:54;0.10;;;0.10;;
42192;SDS011;52467;40.114;18.306;2023-07-31T08:49:21;0.10;;;0.10;;
42192;SDS011;52467;40.114;18.306;2023-07-31T08:51:49;0.00;;;0.00;;
42192;SDS011;52467;40.114;18.306;2023-07-31T08:54:17;0.10;;;0.10;;
42192;SDS011;52467;40.114;18.306;2023-07-31T08:56:45;0.10;;;0.10;;
42192;SDS011;52467;40.114;18.306;2023-07-31T08:59:13;0.10;;;0.10;;
42192;SDS011;52467;40.114;18.306;2023-07-31T09:01:43;0.10;;;0.10;;
42192;SDS011;52467;40.114;18.306;2023-07-31T09:04:12;0.10;;;0.10;;
42192;SDS011;52467;40.114;18.306;2023-07-31T09:06:40;0.10;;;0.10;;
42192;SDS011;52467;40.114;18.306;2023-07-31T09:09:08;0.10;;;0.10;;
42192;SDS011;52467;40.114;18.306;2023-07-31T09:11:35;0.10;;;0.10;;
42192;SDS011;52467;40.114;18.306;2023-07-31T09:14:03;0.10;;;0.10;;
42192;SDS011;52467;40.114;18.306;2023-07-31T09:16:35;0.10;;;0.10;;
42192;SDS011;52467;40.114;18.306;2023-07-31T09:19:02;0.10;;;0.10;;
42192;SDS011;52467;40.114;18.306;2023-07-31T09:21:31;0.10;;;0.10;;
42192;SDS011;52467;40.114;18.306;2023-07-31T09:23:58;0.10;;;0.10;;
42192;SDS011;52467;40.114;18.306;2023-07-31T09:26:29;0.10;;;0.10;;
42192;SDS011;52467;40.114;18.306;2023-07-31T09:29:01;0.10;;;0.10;;
42192;SDS011;52467;40.114;18.306;2023-07-31T09:31:41;0.10;;;0.10;;
42192;SDS011;52467;40.114;18.306;2023-07-31T09:34:09;0.10;;;0.10;;
42192;SDS011;52467;40.114;18.306;2023-07-31T09:36:44;0.10;;;0.10;;
42192;SDS011;52467;40.114;18.306;2023-07-31T09:39:13;0.10;;;0.10;;
42192;SDS011;52467;40.114;18.306;2023-07-31T09:42:03;0.10;;;0.10;;
42192;SDS011;52467;40.114;18.306;2023-07-31T09:44:39;0.10;;;0.10;;
42192;SDS011;52467;40.114;18.306;2023-07-31T09:47:20;0.10;;;0.10;;
42192;SDS011;52467;40.114;18.306;2023-07-31T09:49:48;0.10;;;0.10;;
42192;SDS011;52467;40.114;18.306;2023-07-31T09:52:19;0.10;;;0.10;;
42192;SDS011;52467;40.114;18.306;2023-07-31T09:54:46;0.10;;;0.10;;
42192;SDS011;52467;40.114;18.306;2023-07-31T09:57:14;0.10;;;0.10;;
42192;SDS011;52467;40.114;18.306;2023-07-31T09:59:43;0.10;;;0.10;;
42192;SDS011;52467;40.114;18.306;2023-07-31T10:02:14;0.10;;;0.10;;
42192;SDS011;52467;40.114;18.306;2023-07-31T10:04:42;0.10;;;0.10;;
42192;SDS011;52467;40.114;18.306;2023-07-31T10:07:12;0.10;;;0.10;;
42192;SDS011;52467;40.114;18.306;2023-07-31T10:09:39;0.10;;;0.10;;
42192;SDS011;52467;40.114;18.306;2023-07-31T10:12:07;0.10;;;0.10;;
42192;SDS011;52467;40.114;18.306;2023-07-31T10:14:36;0.10;;;0.10;;
42192;SDS011;52467;40.114;18.306;2023-07-31T10:17:05;0.10;;;0.10;;
42192;SDS011;52467;40.114;18.306;2023-07-31T10:19:34;0.10;;;0.10;;
42192;SDS011;52467;40.114;18.306;2023-07-31T10:22:02;0.03;;;0.03;;
42192;SDS011;52467;40.114;18.306;2023-07-31T10:24:30;0.10;;;0.10;;
42192;SDS011;52467;40.114;18.306;2023-07-31T10:26:58;0.10;;;0.10;;
42192;SDS011;52467;40.114;18.306;2023-07-31T10:29:26;0.10;;;0.10;;
42192;SDS011;52467;40.114;18.306;2023-07-31T10:31:57;0.10;;;0.10;;
42192;SDS011;52467;40.114;18.306;2023-07-31T10:34:25;0.03;;;0.03;;
42192;SDS011;52467;40.114;18.306;2023-07-31T10:42:35;0.10;;;0.10;;
42192;SDS011;52467;40.114;18.306;2023-07-31T10:45:06;0.10;;;0.10;;
42192;SDS011;52467;40.114;18.306;2023-07-31T10:47:37;0.10;;;0.10;;
42192;SDS011;52467;40.114;18.306;2023-07-31T10:52:51;0.08;;;0.08;;
42192;SDS011;52467;40.114;18.306;2023-07-31T10:55:27;0.10;;;0.10;;
42192;SDS011;52467;40.114;18.306;2023-07-31T10:58:06;0.10;;;0.10;;
42192;SDS011;52467;40.114;18.306;2023-07-31T11:00:34;0.10;;;0.10;;
42192;SDS011;52467;40.114;18.306;2023-07-31T11:08:32;0.10;;;0.10;;
42192;SDS011;52467;40.114;18.306;2023-07-31T11:13:32;0.10;;;0.10;;
42192;SDS011;52467;40.114;18.306;2023-07-31T11:16:20;0.10;;;0.10;;
42192;SDS011;52467;40.114;18.306;2023-07-31T11:18:51;0.10;;;0.10;;
42192;SDS011;52467;40.114;18.306;2023-07-31T11:21:21;0.10;;;0.10;;
42192;SDS011;52467;40.114;18.306;2023-07-31T11:23:55;0.10;;;0.10;;
42192;SDS011;52467;40.114;18.306;2023-07-31T11:26:27;0.10;;;0.10;;
42192;SDS011;52467;40.114;18.306;2023-07-31T11:28:55;0.10;;;0.10;;
42192;SDS011;52467;40.114;18.306;2023-07-31T11:31:22;0.10;;;0.10;;
42192;SDS011;52467;40.114;18.306;2023-07-31T11:33:49;0.10;;;0.10;;
42192;SDS011;52467;40.114;18.306;2023-07-31T11:36:17;0.10;;;0.10;;
42192;SDS011;52467;40.114;18.306;2023-07-31T11:38:46;0.10;;;0.10;;
42192;SDS011;52467;40.114;18.306;2023-07-31T11:41:15;0.10;;;0.10;;
42192;SDS011;52467;40.114;18.306;2023-07-31T11:43:43;0.10;;;0.10;;
42192;SDS011;52467;40.114;18.306;2023-07-31T11:46:12;0.10;;;0.10;;
42192;SDS011;52467;40.114;18.306;2023-07-31T11:48:41;0.10;;;0.10;;
42192;SDS011;52467;40.114;18.306;2023-07-31T11:51:10;0.10;;;0.10;;
42192;SDS011;52467;40.114;18.306;2023-07-31T11:53:46;0.10;;;0.10;;
42192;SDS011;52467;40.114;18.306;2023-07-31T11:56:19;0.10;;;0.10;;
42192;SDS011;52467;40.114;18.306;2023-07-31T11:58:48;0.10;;;0.10;;
42192;SDS011;52467;40.114;18.306;2023-07-31T12:01:18;0.10;;;0.10;;
42192;SDS011;52467;40.114;18.306;2023-07-31T12:03:47;0.10;;;0.10;;
42192;SDS011;52467;40.114;18.306;2023-07-31T12:06:15;0.10;;;0.10;;
42192;SDS011;52467;40.114;18.306;2023-07-31T12:08:42;0.10;;;0.10;;
42192;SDS011;52467;40.114;18.306;2023-07-31T12:11:10;0.10;;;0.10;;
42192;SDS011;52467;40.114;18.306;2023-07-31T12:13:37;0.10;;;0.10;;
42192;SDS011;52467;40.114;18.306;2023-07-31T12:16:05;0.10;;;0.10;;
42192;SDS011;52467;40.114;18.306;2023-07-31T12:18:36;0.10;;;0.10;;
42192;SDS011;52467;40.114;18.306;2023-07-31T12:21:05;0.10;;;0.10;;
42192;SDS011;52467;40.114;18.306;2023-07-31T12:23:34;0.10;;;0.10;;
42192;SDS011;52467;40.114;18.306;2023-07-31T12:26:10;0.10;;;0.10;;
42192;SDS011;52467;40.114;18.306;2023-07-31T12:31:10;0.10;;;0.10;;
42192;SDS011;52467;40.114;18.306;2023-07-31T12:33:57;0.20;;;0.20;;
42192;SDS011;52467;40.114;18.306;2023-07-31T12:36:25;0.20;;;0.20;;
42192;SDS011;52467;40.114;18.306;2023-07-31T12:38:52;0.20;;;0.20;;
42192;SDS011;52467;40.114;18.306;2023-07-31T12:41:20;0.20;;;0.20;;
42192;SDS011;52467;40.114;18.306;2023-07-31T12:43:47;0.20;;;0.20;;
42192;SDS011;52467;40.114;18.306;2023-07-31T12:46:14;0.20;;;0.20;;
42192;SDS011;52467;40.114;18.306;2023-07-31T12:48:42;0.20;;;0.20;;
42192;SDS011;52467;40.114;18.306;2023-07-31T12:51:10;0.20;;;0.20;;
42192;SDS011;52467;40.114;18.306;2023-07-31T12:53:37;0.20;;;0.20;;
42192;SDS011;52467;40.114;18.306;2023-07-31T12:56:04;0.20;;;0.20;;
42192;SDS011;52467;40.114;18.306;2023-07-31T12:58:32;0.20;;;0.20;;
42192;SDS011;52467;40.114;18.306;2023-07-31T13:00:59;0.30;;;0.30;;
42192;SDS011;52467;40.114;18.306;2023-07-31T13:03:28;0.30;;;0.30;;
42192;SDS011;52467;40.114;18.306;2023-07-31T13:05:55;0.30;;;0.30;;
42192;SDS011;52467;40.114;18.306;2023-07-31T13:08:23;0.30;;;0.30;;
42192;SDS011;52467;40.114;18.306;2023-07-31T13:10:50;0.30;;;0.30;;
42192;SDS011;52467;40.114;18.306;2023-07-31T13:13:17;0.30;;;0.30;;
42192;SDS011;52467;40.114;18.306;2023-07-31T13:15:45;0.30;;;0.30;;
42192;SDS011;52467;40.114;18.306;2023-07-31T13:18:12;0.30;;;0.30;;
42192;SDS011;52467;40.114;18.306;2023-07-31T13:20:39;0.40;;;0.40;;
42192;SDS011;52467;40.114;18.306;2023-07-31T13:23:07;0.40;;;0.40;;
42192;SDS011;52467;40.114;18.306;2023-07-31T13:25:34;0.40;;;0.40;;
42192;SDS011;52467;40.114;18.306;2023-07-31T13:28:02;0.30;;;0.30;;
42192;SDS011;52467;40.114;18.306;2023-07-31T13:30:29;0.40;;;0.40;;
42192;SDS011;52467;40.114;18.306;2023-07-31T13:32:57;0.38;;;0.38;;
42192;SDS011;52467;40.114;18.306;2023-07-31T13:35:24;0.30;;;0.30;;
42192;SDS011;52467;40.114;18.306;2023-07-31T13:37:51;0.40;;;0.40;;
42192;SDS011;52467;40.114;18.306;2023-07-31T13:40:19;0.40;;;0.40;;
42192;SDS011;52467;40.114;18.306;2023-07-31T13:42:46;0.40;;;0.40;;
42192;SDS011;52467;40.114;18.306;2023-07-31T13:45:15;0.47;;;0.47;;
42192;SDS011;52467;40.114;18.306;2023-07-31T13:47:42;0.37;;;0.37;;
42192;SDS011;52467;40.114;18.306;2023-07-31T13:50:09;0.30;;;0.30;;
42192;SDS011;52467;40.114;18.306;2023-07-31T13:52:36;0.40;;;0.40;;
42192;SDS011;52467;40.114;18.306;2023-07-31T13:55:04;0.40;;;0.40;;
42192;SDS011;52467;40.114;18.306;2023-07-31T13:57:32;0.30;;;0.30;;
42192;SDS011;52467;40.114;18.306;2023-07-31T13:59:59;0.40;;;0.40;;
42192;SDS011;52467;40.114;18.306;2023-07-31T14:02:27;0.47;;;0.47;;
42192;SDS011;52467;40.114;18.306;2023-07-31T14:04:54;0.50;;;0.50;;
42192;SDS011;52467;40.114;18.306;2023-07-31T14:07:21;0.60;;;0.60;;
42192;SDS011;52467;40.114;18.306;2023-07-31T14:09:49;0.70;;;0.70;;
42192;SDS011;52467;40.114;18.306;2023-07-31T14:12:16;0.60;;;0.60;;
42192;SDS011;52467;40.114;18.306;2023-07-31T14:14:50;0.60;;;0.60;;
42192;SDS011;52467;40.114;18.306;2023-07-31T14:17:18;0.50;;;0.50;;
42192;SDS011;52467;40.114;18.306;2023-07-31T14:19:45;0.60;;;0.60;;
42192;SDS011;52467;40.114;18.306;2023-07-31T14:22:12;0.50;;;0.50;;
42192;SDS011;52467;40.114;18.306;2023-07-31T14:24:40;0.50;;;0.50;;
42192;SDS011;52467;40.114;18.306;2023-07-31T14:27:07;0.40;;;0.40;;
42192;SDS011;52467;40.114;18.306;2023-07-31T14:29:35;0.50;;;0.50;;
42192;SDS011;52467;40.114;18.306;2023-07-31T14:32:02;0.40;;;0.40;;
42192;SDS011;52467;40.114;18.306;2023-07-31T14:34:30;0.40;;;0.40;;
42192;SDS011;52467;40.114;18.306;2023-07-31T14:36:57;0.40;;;0.40;;
42192;SDS011;52467;40.114;18.306;2023-07-31T14:39:24;0.50;;;0.50;;
42192;SDS011;52467;40.114;18.306;2023-07-31T14:41:51;0.60;;;0.60;;
42192;SDS011;52467;40.114;18.306;2023-07-31T14:44:19;0.70;;;0.70;;
42192;SDS011;52467;40.114;18.306;2023-07-31T14:46:46;0.80;;;0.80;;
42192;SDS011;52467;40.114;18.306;2023-07-31T14:49:14;0.65;;;0.65;;
42192;SDS011;52467;40.114;18.306;2023-07-31T14:51:41;0.60;;;0.60;;
42192;SDS011;52467;40.114;18.306;2023-07-31T14:54:08;0.60;;;0.60;;
42192;SDS011;52467;40.114;18.306;2023-07-31T14:56:36;0.50;;;0.50;;
42192;SDS011;52467;40.114;18.306;2023-07-31T14:59:03;0.40;;;0.40;;
42192;SDS011;52467;40.114;18.306;2023-07-31T15:01:30;0.40;;;0.40;;
42192;SDS011;52467;40.114;18.306;2023-07-31T15:03:57;0.50;;;0.50;;